createdAt,value
2023-05-14T00:00:49.238Z,8.60
2023-05-14T00:03:16.148Z,8.60
2023-05-14T00:05:43.090Z,8.50
2023-05-14T00:08:09.850Z,8.50
2023-05-14T00:10:36.725Z,8.50
2023-05-14T00:13:03.475Z,8.50
2023-05-14T00:15:31.786Z,8.50
2023-05-14T00:18:00.731Z,8.40
2023-05-14T00:20:27.796Z,8.30
2023-05-14T00:22:54.510Z,8.30
2023-05-14T00:25:21.391Z,8.30
2023-05-14T00:27:48.197Z,8.20
2023-05-14T00:30:15.045Z,8.20
2023-05-14T00:32:41.893Z,8.10
2023-05-14T00:35:09.166Z,8.10
2023-05-14T00:37:36.431Z,8.10
2023-05-14T00:40:03.786Z,8.10
2023-05-14T00:42:30.681Z,8.00
2023-05-14T00:44:57.431Z,8.00
2023-05-14T00:47:24.469Z,7.90
2023-05-14T00:49:51.296Z,7.80
2023-05-14T00:52:18.700Z,7.80
2023-05-14T00:54:47.809Z,7.70
2023-05-14T00:57:14.612Z,7.70
2023-05-14T00:59:42.668Z,7.70
2023-05-14T01:02:09.532Z,7.70
2023-05-14T01:04:37.694Z,7.70
2023-05-14T01:07:07.492Z,7.60
2023-05-14T01:09:50.156Z,7.60
2023-05-14T01:12:38.032Z,7.50
2023-05-14T01:15:10.721Z,7.40
2023-05-14T01:17:48.627Z,7.40
2023-05-14T01:20:16.295Z,7.40
2023-05-14T01:22:43.136Z,7.30
2023-05-14T01:25:10.303Z,7.30
2023-05-14T01:28:10.608Z,7.30
2023-05-14T01:30:40.296Z,7.30
2023-05-14T01:33:11.340Z,7.20
2023-05-14T01:35:38.429Z,7.20
2023-05-14T01:38:09.166Z,7.10
2023-05-14T01:40:36.926Z,7.10
2023-05-14T01:43:05.138Z,7.10
2023-05-14T01:45:34.808Z,7.00
2023-05-14T01:48:01.621Z,6.90
2023-05-14T01:50:28.364Z,6.80
2023-05-14T01:52:56.472Z,6.80
2023-05-14T01:55:27.020Z,6.70
2023-05-14T01:57:53.898Z,6.70
2023-05-14T02:00:23.822Z,6.60
2023-05-14T02:02:50.949Z,6.50
2023-05-14T02:05:17.954Z,6.50
2023-05-14T02:07:44.958Z,6.50
2023-05-14T02:10:11.859Z,6.50
2023-05-14T02:12:38.655Z,6.60
2023-05-14T02:15:06.035Z,6.60
2023-05-14T02:17:32.963Z,6.50
2023-05-14T02:19:59.776Z,6.50
2023-05-14T02:22:26.625Z,6.50
2023-05-14T02:28:21.904Z,6.50
2023-05-14T02:30:48.695Z,6.50
2023-05-14T02:33:15.565Z,6.40
2023-05-14T02:35:42.359Z,6.40
2023-05-14T02:38:09.214Z,6.50
2023-05-14T02:40:37.250Z,6.50
2023-05-14T02:43:04.250Z,6.40
2023-05-14T02:45:31.054Z,6.40
2023-05-14T02:47:57.931Z,6.30
2023-05-14T02:50:25.063Z,6.30
2023-05-14T02:52:52.096Z,6.30
2023-05-14T02:55:19.075Z,6.20
2023-05-14T02:57:46.649Z,6.20
2023-05-14T03:00:13.773Z,6.20
2023-05-14T03:02:40.951Z,6.20
2023-05-14T03:05:09.326Z,6.20
2023-05-14T03:07:36.092Z,6.20
2023-05-14T03:10:02.942Z,6.20
2023-05-14T03:12:29.812Z,6.30
2023-05-14T03:14:56.534Z,6.30
2023-05-14T03:17:23.339Z,6.20
2023-05-14T03:19:50.208Z,6.30
2023-05-14T03:22:17.206Z,6.30
2023-05-14T03:24:43.954Z,6.30
2023-05-14T03:27:10.813Z,6.30
2023-05-14T03:29:37.578Z,6.30
2023-05-14T03:32:04.753Z,6.30
2023-05-14T03:34:31.565Z,6.30
2023-05-14T03:36:58.343Z,6.30
2023-05-14T03:39:25.093Z,6.30
2023-05-14T03:41:51.994Z,6.30
2023-05-14T03:44:18.813Z,6.30
2023-05-14T03:46:45.697Z,6.30
2023-05-14T03:49:12.521Z,6.30
2023-05-14T03:51:39.597Z,6.30
2023-05-14T03:54:06.931Z,6.30
2023-05-14T03:56:33.758Z,6.30
2023-05-14T03:59:00.601Z,6.30
2023-05-14T04:01:27.376Z,6.30
2023-05-14T04:04:45.920Z,6.40
2023-05-14T04:07:12.789Z,6.40
2023-05-14T04:09:39.535Z,6.40
2023-05-14T04:12:06.923Z,6.50
2023-05-14T04:14:33.690Z,6.60
2023-05-14T04:17:00.688Z,6.70
2023-05-14T04:19:27.518Z,6.80
2023-05-14T04:21:54.321Z,6.90
2023-05-14T04:24:21.104Z,7.00
2023-05-14T04:26:48.000Z,7.20
2023-05-14T04:29:14.764Z,7.30
2023-05-14T04:31:43.052Z,7.40
2023-05-14T04:34:09.928Z,7.60
2023-05-14T04:36:36.742Z,7.80
2023-05-14T04:39:04.022Z,7.90
2023-05-14T04:41:30.738Z,8.10
2023-05-14T04:43:58.789Z,8.20
2023-05-14T04:46:25.755Z,8.40
2023-05-14T04:48:52.596Z,8.50
2023-05-14T04:51:19.344Z,8.70
2023-05-14T04:53:46.446Z,8.90
2023-05-14T04:56:13.326Z,9.00
2023-05-14T04:58:40.378Z,9.10
2023-05-14T05:01:07.383Z,9.30
2023-05-14T05:03:34.334Z,9.50
2023-05-14T05:06:01.280Z,9.80
2023-05-14T05:08:28.164Z,9.90
2023-05-14T05:10:54.942Z,10.10
2023-05-14T05:13:21.689Z,10.30
2023-05-14T05:15:48.563Z,10.50
2023-05-14T05:18:15.512Z,10.70
2023-05-14T05:20:42.285Z,10.80
2023-05-14T05:23:09.052Z,10.90
2023-05-14T05:25:36.327Z,11.10
2023-05-14T05:28:03.171Z,11.20
2023-05-14T05:30:30.319Z,11.30
2023-05-14T05:32:57.614Z,11.40
2023-05-14T05:35:24.866Z,11.40
2023-05-14T05:37:51.729Z,11.50
2023-05-14T05:40:19.038Z,11.70
2023-05-14T05:42:45.803Z,11.70
2023-05-14T05:45:12.543Z,11.70
2023-05-14T05:47:39.405Z,11.90
2023-05-14T05:50:07.441Z,11.90
2023-05-14T05:52:34.270Z,12.00
2023-05-14T05:55:01.063Z,12.10
2023-05-14T05:57:28.088Z,12.20
2023-05-14T05:59:54.870Z,12.40
2023-05-14T06:02:21.838Z,12.50
2023-05-14T06:04:58.841Z,12.70
2023-05-14T06:07:26.452Z,12.80
2023-05-14T06:09:53.169Z,13.10
2023-05-14T06:12:21.756Z,13.40
2023-05-14T06:14:48.542Z,13.70
2023-05-14T06:17:33.836Z,14.10
2023-05-14T06:20:00.697Z,14.50
2023-05-14T06:22:27.532Z,15.00
2023-05-14T06:24:54.308Z,15.30
2023-05-14T06:27:21.090Z,15.80
2023-05-14T06:29:47.916Z,16.10
2023-05-14T06:32:17.646Z,16.20
2023-05-14T06:34:44.578Z,16.50
2023-05-14T06:37:12.267Z,16.80
2023-05-14T06:39:39.303Z,17.30
2023-05-14T06:48:27.611Z,17.20
2023-05-14T06:50:55.037Z,17.20
2023-05-14T06:55:56.319Z,18.00
2023-05-14T06:58:23.078Z,18.40
2023-05-14T07:00:49.852Z,19.00
2023-05-14T07:03:16.679Z,19.40
2023-05-14T07:05:44.940Z,19.60
2023-05-14T07:08:11.808Z,19.90
2023-05-14T07:10:39.138Z,20.00
2023-05-14T07:13:06.368Z,20.50
2023-05-14T07:15:33.200Z,20.90
2023-05-14T07:18:00.096Z,21.30
2023-05-14T07:20:27.279Z,21.60
2023-05-14T07:22:54.280Z,21.80
2023-05-14T07:25:21.036Z,21.80
2023-05-14T07:27:48.025Z,21.70
2023-05-14T07:30:15.272Z,21.70
2023-05-14T07:32:42.368Z,22.10
2023-05-14T07:35:09.984Z,22.30
2023-05-14T07:37:36.932Z,22.70
2023-05-14T07:40:03.981Z,22.90
2023-05-14T07:42:36.680Z,22.90
2023-05-14T07:45:04.975Z,23.00
2023-05-14T07:47:31.857Z,23.30
2023-05-14T07:49:58.862Z,23.20
2023-05-14T07:52:25.706Z,23.40
2023-05-14T07:54:52.948Z,23.20
2023-05-14T07:57:20.373Z,23.30
2023-05-14T07:59:48.515Z,23.80
2023-05-14T08:02:16.840Z,23.90
2023-05-14T08:04:43.997Z,23.20
2023-05-14T08:07:11.286Z,22.50
2023-05-14T08:09:38.323Z,22.20
2023-05-14T08:12:06.021Z,21.80
2023-05-14T08:14:32.899Z,21.50
2023-05-14T08:16:59.683Z,21.80
2023-05-14T08:19:27.843Z,21.60
2023-05-14T08:21:54.787Z,21.70
2023-05-14T08:24:21.499Z,22.10
2023-05-14T08:26:48.345Z,21.90
2023-05-14T08:29:16.475Z,21.90
2023-05-14T08:31:43.994Z,22.40
2023-05-14T08:34:10.939Z,22.20
2023-05-14T08:36:38.902Z,22.40
2023-05-14T08:39:07.585Z,22.50
2023-05-14T08:41:34.714Z,22.70
2023-05-14T08:44:01.414Z,23.20
2023-05-14T08:46:31.086Z,23.70
2023-05-14T08:49:08.890Z,24.10
2023-05-14T08:51:35.899Z,24.80
2023-05-14T08:54:05.923Z,25.10
2023-05-14T08:56:33.554Z,25.80
2023-05-14T08:59:00.909Z,26.00
2023-05-14T09:01:28.957Z,26.10
2023-05-14T09:03:56.575Z,26.70
2023-05-14T09:06:24.520Z,27.60
2023-05-14T09:08:51.552Z,28.70
2023-05-14T09:11:18.365Z,29.40
2023-05-14T09:13:45.071Z,29.80
2023-05-14T09:16:11.998Z,29.60
2023-05-14T09:18:43.109Z,30.00
2023-05-14T09:21:09.936Z,29.00
2023-05-14T09:23:42.211Z,29.50
2023-05-14T09:26:09.007Z,30.50
2023-05-14T09:28:36.027Z,30.00
2023-05-14T09:31:02.928Z,31.20
2023-05-14T09:33:29.875Z,30.70
2023-05-14T09:36:00.691Z,30.90
2023-05-14T09:38:34.090Z,31.50
2023-05-14T09:41:01.338Z,31.10
2023-05-14T09:43:28.337Z,31.10
2023-05-14T09:45:55.184Z,31.10
2023-05-14T09:48:22.932Z,30.80
2023-05-14T09:50:49.842Z,31.30
2023-05-14T09:53:17.645Z,30.40
2023-05-14T09:55:45.590Z,30.90
2023-05-14T09:58:14.478Z,30.60
2023-05-14T10:00:45.827Z,31.70
2023-05-14T10:03:15.280Z,31.60
2023-05-14T10:05:43.575Z,31.70
2023-05-14T10:08:25.072Z,31.10
2023-05-14T10:10:54.869Z,31.10
2023-05-14T10:13:28.067Z,31.40
2023-05-14T10:16:02.239Z,32.00
2023-05-14T10:18:34.798Z,32.80
2023-05-14T10:21:05.706Z,32.70
2023-05-14T10:23:33.574Z,31.20
2023-05-14T10:26:01.404Z,30.00
2023-05-14T10:28:28.461Z,30.00
2023-05-14T10:30:56.280Z,30.40
2023-05-14T10:33:23.232Z,30.20
2023-05-14T10:35:57.499Z,29.80
2023-05-14T10:38:44.858Z,28.70
2023-05-14T10:41:20.853Z,27.30
2023-05-14T10:43:47.763Z,26.70
2023-05-14T10:46:15.599Z,25.90
2023-05-14T10:48:44.178Z,25.40
2023-05-14T10:51:12.355Z,25.40
2023-05-14T10:53:41.565Z,25.40
2023-05-14T10:56:13.126Z,25.30
2023-05-14T10:58:44.608Z,25.40
2023-05-14T11:01:12.970Z,25.40
2023-05-14T11:03:45.218Z,25.50
2023-05-14T11:06:13.753Z,25.70
2023-05-14T11:08:41.528Z,25.60
2023-05-14T11:11:09.422Z,25.70
2023-05-14T11:13:36.438Z,25.80
2023-05-14T11:16:15.057Z,25.70
2023-05-14T11:18:48.348Z,25.40
2023-05-14T11:21:17.420Z,25.10
2023-05-14T11:23:46.806Z,25.00
2023-05-14T11:26:13.704Z,24.90
2023-05-14T11:28:40.704Z,24.80
2023-05-14T11:31:07.604Z,24.80
2023-05-14T11:33:35.544Z,24.90
2023-05-14T11:36:02.442Z,25.00
2023-05-14T11:38:29.222Z,25.00
2023-05-14T11:40:57.465Z,25.10
2023-05-14T11:43:24.879Z,25.60
2023-05-14T11:45:52.902Z,26.20
2023-05-14T11:48:21.088Z,27.30
2023-05-14T11:50:49.184Z,27.30
2023-05-14T11:53:29.930Z,27.00
2023-05-14T11:55:59.991Z,26.30
2023-05-14T11:58:26.836Z,25.90
2023-05-14T12:00:55.230Z,25.70
2023-05-14T12:03:25.852Z,25.30
2023-05-14T12:05:59.846Z,25.10
2023-05-14T12:08:31.665Z,24.80
2023-05-14T12:11:00.408Z,24.70
2023-05-14T12:13:29.010Z,24.10
2023-05-14T12:15:58.037Z,23.80
2023-05-14T12:18:25.972Z,23.40
2023-05-14T12:20:52.942Z,22.60
2023-05-14T12:23:27.042Z,22.00
2023-05-14T12:25:54.183Z,21.30
2023-05-14T12:28:23.071Z,20.90
2023-05-14T12:30:57.056Z,20.70
2023-05-14T12:33:24.010Z,20.60
2023-05-14T12:35:50.904Z,20.60
2023-05-14T12:38:17.684Z,20.60
2023-05-14T12:40:44.641Z,20.60
2023-05-14T12:43:11.481Z,20.50
2023-05-14T12:45:38.435Z,20.40
2023-05-14T12:48:05.935Z,20.50
2023-05-14T12:50:32.778Z,20.50
2023-05-14T12:52:59.517Z,20.50
2023-05-14T12:55:26.497Z,20.70
2023-05-14T12:57:54.067Z,20.70
2023-05-14T13:00:20.878Z,21.10
2023-05-14T13:02:47.731Z,21.40
2023-05-14T13:05:14.527Z,21.80
2023-05-14T13:07:41.570Z,22.30
2023-05-14T13:10:09.105Z,23.10
2023-05-14T13:12:36.092Z,23.60
2023-05-14T13:15:02.965Z,24.20
2023-05-14T13:17:30.290Z,24.60
2023-05-14T13:19:57.060Z,24.70
2023-05-14T13:22:23.822Z,25.10
2023-05-14T13:24:50.556Z,25.30
2023-05-14T13:27:17.360Z,25.20
2023-05-14T13:29:44.255Z,25.40
2023-05-14T13:32:11.079Z,25.60
2023-05-14T13:34:37.966Z,25.80
2023-05-14T13:37:04.806Z,26.00
2023-05-14T13:39:31.570Z,26.20
2023-05-14T13:41:58.387Z,26.40
2023-05-14T13:44:25.357Z,26.60
2023-05-14T13:46:52.788Z,26.90
2023-05-14T13:49:19.645Z,27.10
2023-05-14T13:51:46.371Z,26.70
2023-05-14T13:54:13.297Z,26.40
2023-05-14T13:56:40.437Z,26.10
2023-05-14T13:59:07.414Z,25.60
2023-05-14T14:01:34.280Z,25.40
2023-05-14T14:04:01.160Z,25.30
2023-05-14T14:06:27.983Z,24.80
2023-05-14T14:08:54.761Z,24.40
2023-05-14T14:11:21.975Z,24.10
2023-05-14T14:13:48.981Z,23.70
2023-05-14T14:16:16.279Z,23.20
2023-05-14T14:18:43.488Z,22.60
2023-05-14T14:21:10.704Z,21.50
2023-05-14T14:23:37.759Z,20.90
2023-05-14T14:26:04.504Z,20.50
2023-05-14T14:28:31.498Z,20.30
2023-05-14T14:30:58.519Z,20.00
2023-05-14T14:33:25.662Z,19.80
2023-05-14T14:35:53.020Z,19.60
2023-05-14T14:38:20.234Z,19.50
2023-05-14T14:40:47.006Z,19.40
2023-05-14T14:43:13.818Z,19.30
2023-05-14T14:45:40.780Z,19.20
2023-05-14T14:48:22.913Z,19.20
2023-05-14T14:50:50.080Z,19.40
2023-05-14T14:53:16.791Z,19.50
2023-05-14T14:55:43.765Z,19.70
2023-05-14T14:58:10.546Z,19.80
2023-05-14T15:00:37.880Z,19.90
2023-05-14T15:03:06.208Z,20.00
2023-05-14T15:05:33.175Z,20.10
2023-05-14T15:08:00.006Z,20.10
2023-05-14T15:10:28.829Z,20.20
2023-05-14T15:12:59.488Z,20.30
2023-05-14T15:15:26.924Z,20.30
2023-05-14T15:17:53.871Z,20.30
2023-05-14T15:20:20.702Z,20.50
2023-05-14T15:22:48.988Z,20.50
2023-05-14T15:25:15.809Z,20.50
2023-05-14T15:27:42.665Z,20.50
2023-05-14T15:30:09.914Z,20.50
2023-05-14T15:32:36.975Z,20.70
2023-05-14T15:35:04.213Z,21.10
2023-05-14T15:37:39.638Z,21.40
2023-05-14T15:40:08.267Z,21.70
2023-05-14T15:42:39.422Z,21.80
2023-05-14T15:45:06.855Z,22.00
2023-05-14T15:47:33.870Z,22.20
2023-05-14T15:50:01.469Z,22.60
2023-05-14T15:52:28.805Z,22.50
2023-05-14T15:54:57.404Z,22.30
2023-05-14T15:57:24.381Z,22.30
2023-05-14T15:59:51.572Z,22.20
2023-05-14T16:02:18.553Z,22.00
2023-05-14T16:04:45.438Z,21.90
2023-05-14T16:07:13.055Z,21.80
2023-05-14T16:09:39.848Z,21.70
2023-05-14T16:12:07.167Z,21.50
2023-05-14T16:14:34.798Z,21.40
2023-05-14T16:17:02.081Z,21.30
2023-05-14T16:19:28.902Z,20.90
2023-05-14T16:21:55.838Z,20.70
2023-05-14T16:27:28.220Z,20.40
2023-05-14T16:29:55.020Z,20.30
2023-05-14T16:32:22.761Z,20.30
2023-05-14T16:34:52.253Z,20.30
2023-05-14T16:37:20.280Z,20.30
2023-05-14T16:39:47.342Z,20.40
2023-05-14T16:42:14.292Z,20.60
2023-05-14T16:44:41.088Z,20.70
2023-05-14T16:47:07.879Z,20.60
2023-05-14T16:49:34.678Z,20.50
2023-05-14T16:52:01.467Z,20.30
2023-05-14T16:54:28.299Z,20.10
2023-05-14T16:56:55.055Z,20.00
2023-05-14T16:59:21.837Z,19.90
2023-05-14T17:01:48.672Z,19.90
2023-05-14T17:04:15.877Z,19.80
2023-05-14T17:07:42.991Z,19.70
2023-05-14T17:10:10.470Z,19.80
2023-05-14T17:12:37.405Z,19.70
2023-05-14T17:15:08.149Z,19.70
2023-05-14T17:17:35.114Z,19.70
2023-05-14T17:20:02.096Z,19.70
2023-05-14T17:22:28.907Z,19.70
2023-05-14T17:24:55.741Z,19.60
2023-05-14T17:27:22.650Z,19.50
2023-05-14T17:29:51.221Z,19.40
2023-05-14T17:32:18.441Z,19.30
2023-05-14T17:34:45.276Z,19.20
2023-05-14T17:37:12.326Z,19.20
2023-05-14T17:39:39.128Z,19.00
2023-05-14T17:42:06.667Z,19.00
2023-05-14T17:44:33.530Z,18.80
2023-05-14T17:47:20.727Z,18.70
2023-05-14T17:49:51.133Z,18.60
2023-05-14T17:52:18.028Z,18.50
2023-05-14T17:54:44.796Z,18.40
2023-05-14T17:57:11.700Z,18.30
2023-05-14T17:59:38.536Z,18.20
2023-05-14T18:02:05.731Z,18.10
2023-05-14T18:04:32.568Z,18.10
2023-05-14T18:07:01.365Z,18.00
2023-05-14T18:09:28.184Z,17.90
2023-05-14T18:11:56.898Z,17.90
2023-05-14T18:14:23.940Z,17.80
2023-05-14T18:16:51.201Z,17.70
2023-05-14T18:19:18.400Z,17.70
2023-05-14T18:21:47.979Z,17.60
2023-05-14T18:24:14.992Z,17.60
2023-05-14T18:26:41.887Z,17.50
2023-05-14T18:29:08.870Z,17.50
2023-05-14T18:31:35.691Z,17.50
2023-05-14T18:34:02.497Z,17.50
2023-05-14T18:36:29.283Z,17.50
2023-05-14T18:38:56.000Z,17.40
2023-05-14T18:41:23.479Z,17.40
2023-05-14T18:43:50.312Z,17.40
2023-05-14T18:46:17.213Z,17.30
2023-05-14T18:48:44.041Z,17.30
2023-05-14T18:51:12.211Z,17.20
2023-05-14T18:53:38.979Z,17.10
2023-05-14T18:56:05.948Z,17.10
2023-05-14T18:58:32.761Z,17.10
2023-05-14T19:00:59.579Z,17.00
2023-05-14T19:03:26.576Z,16.90
2023-05-14T19:05:53.832Z,16.90
2023-05-14T19:08:20.628Z,16.90
2023-05-14T19:10:47.535Z,16.80
2023-05-14T19:13:16.466Z,16.80
2023-05-14T19:15:43.634Z,16.70
2023-05-14T19:18:20.116Z,16.70
2023-05-14T19:20:47.024Z,16.70
2023-05-14T19:23:13.886Z,16.60
2023-05-14T19:25:40.748Z,16.60
2023-05-14T19:28:07.577Z,16.50
2023-05-14T19:30:34.384Z,16.50
2023-05-14T19:33:01.237Z,16.40
2023-05-14T19:35:28.158Z,16.40
2023-05-14T19:37:55.046Z,16.30
2023-05-14T19:43:58.068Z,16.30
2023-05-14T19:46:24.981Z,16.20
2023-05-14T19:48:52.301Z,16.10
2023-05-14T19:51:19.162Z,16.10
2023-05-14T19:53:45.960Z,16.00
2023-05-14T19:56:12.756Z,16.00
2023-05-14T19:58:39.562Z,15.90
2023-05-14T20:01:06.404Z,15.80
2023-05-14T20:03:33.485Z,15.80
2023-05-14T20:06:00.478Z,15.80
2023-05-14T20:08:28.922Z,15.80
2023-05-14T20:10:55.736Z,15.70
2023-05-14T20:13:24.405Z,15.60
2023-05-14T20:15:52.030Z,15.60
2023-05-14T20:18:18.907Z,15.50
2023-05-14T20:20:45.691Z,15.50
2023-05-14T20:23:12.523Z,15.40
2023-05-14T20:29:00.562Z,15.40
2023-05-14T20:31:27.368Z,15.30
2023-05-14T20:33:54.242Z,15.30
2023-05-14T20:36:20.988Z,15.30
2023-05-14T20:38:47.797Z,15.30
2023-05-14T20:41:15.050Z,15.30
2023-05-14T20:43:41.883Z,15.30
2023-05-14T20:46:09.188Z,15.30
2023-05-14T20:48:36.002Z,15.20
2023-05-14T20:51:04.835Z,15.20
2023-05-14T20:53:32.052Z,15.20
2023-05-14T20:55:59.595Z,15.10
2023-05-14T20:58:26.367Z,15.10
2023-05-14T21:00:53.181Z,15.10
2023-05-14T21:03:20.092Z,15.10
2023-05-14T21:05:47.095Z,15.10
2023-05-14T21:08:13.869Z,15.00
2023-05-14T21:10:40.869Z,15.00
2023-05-14T21:13:08.198Z,15.00
2023-05-14T21:15:35.147Z,14.90
2023-05-14T21:18:02.875Z,14.90
2023-05-14T21:20:29.720Z,14.90
2023-05-14T21:22:56.548Z,14.90
2023-05-14T21:25:23.666Z,14.80
2023-05-14T21:27:50.680Z,14.80
2023-05-14T21:30:17.460Z,14.80
2023-05-14T21:32:44.227Z,14.70
2023-05-14T21:35:11.029Z,14.70
2023-05-14T21:37:39.762Z,14.70
2023-05-14T21:40:12.391Z,14.70
2023-05-14T21:42:42.116Z,14.70
2023-05-14T21:45:09.425Z,14.60
2023-05-14T21:47:37.159Z,14.60
2023-05-14T21:50:04.924Z,14.60
2023-05-14T21:52:31.796Z,14.60
2023-05-14T21:54:58.594Z,14.50
2023-05-14T21:57:28.147Z,14.50
2023-05-14T21:59:55.552Z,14.50
2023-05-14T22:02:22.510Z,14.50
2023-05-14T22:04:49.308Z,14.50
2023-05-14T22:07:16.092Z,14.40
2023-05-14T22:09:42.889Z,14.40
2023-05-14T22:12:09.782Z,14.30
2023-05-14T22:14:36.692Z,14.40
2023-05-14T22:17:03.768Z,14.30
2023-05-14T22:19:31.047Z,14.30
2023-05-14T22:21:58.669Z,14.30
2023-05-14T22:24:25.811Z,14.20
2023-05-14T22:26:52.700Z,14.20
2023-05-14T22:29:19.493Z,14.20
2023-05-14T22:31:46.409Z,14.20
2023-05-14T22:34:13.192Z,14.20
2023-05-14T22:36:40.011Z,14.20
2023-05-14T22:39:06.754Z,14.10
2023-05-14T22:41:33.601Z,14.10
2023-05-14T22:44:00.564Z,14.00
2023-05-14T22:46:27.530Z,14.00
2023-05-14T22:48:54.538Z,13.90
2023-05-14T22:51:21.407Z,13.90
2023-05-14T22:53:48.554Z,13.80
2023-05-14T22:56:15.785Z,13.70
2023-05-14T22:58:42.516Z,13.70
2023-05-14T23:01:09.311Z,13.60
2023-05-14T23:03:36.137Z,13.50
2023-05-14T23:06:03.031Z,13.50
2023-05-14T23:08:30.066Z,13.30
2023-05-14T23:10:56.933Z,13.30
2023-05-14T23:13:23.783Z,13.20
2023-05-14T23:15:50.737Z,13.10
2023-05-14T23:18:17.671Z,13.00
2023-05-14T23:20:44.632Z,13.00
2023-05-14T23:23:11.480Z,12.90
2023-05-14T23:25:38.295Z,12.80
2023-05-14T23:28:05.293Z,12.70
2023-05-14T23:30:32.205Z,12.60
2023-05-14T23:32:59.112Z,12.60
2023-05-14T23:35:26.145Z,12.50
2023-05-14T23:37:55.281Z,12.40
2023-05-14T23:40:22.157Z,12.30
2023-05-14T23:42:48.959Z,12.20
2023-05-14T23:45:16.013Z,12.10
2023-05-14T23:47:43.055Z,12.10
2023-05-14T23:50:10.048Z,12.00
2023-05-14T23:52:36.781Z,12.00
2023-05-14T23:55:04.236Z,11.90
2023-05-14T23:57:31.024Z,11.90
2023-05-14T23:59:57.934Z,11.90
